createdAt,value
2018-09-19T00:00:22.838Z,75.46
2018-09-19T00:02:51.858Z,75.38
2018-09-19T00:05:20.706Z,75.27
2018-09-19T00:07:49.773Z,74.96
2018-09-19T00:10:18.683Z,75.47
2018-09-19T00:12:47.618Z,76.43
2018-09-19T00:15:16.903Z,75.92
2018-09-19T00:17:45.908Z,77.38
2018-09-19T00:20:14.928Z,76.66
2018-09-19T00:22:44.076Z,77.68
2018-09-19T00:25:13.085Z,77.28
2018-09-19T00:27:41.982Z,77.13
2018-09-19T00:30:10.794Z,77.07
2018-09-19T00:32:39.736Z,76.40
2018-09-19T00:35:08.589Z,75.74
2018-09-19T00:37:37.533Z,76.35
2018-09-19T00:40:06.410Z,75.72
2018-09-19T00:42:35.329Z,75.98
2018-09-19T00:45:04.602Z,76.85
2018-09-19T00:47:33.362Z,76.64
2018-09-19T00:50:02.431Z,77.19
2018-09-19T00:52:31.392Z,76.92
2018-09-19T00:55:00.404Z,76.59
2018-09-19T00:57:29.376Z,76.58
2018-09-19T00:59:58.709Z,76.54
2018-09-19T01:02:27.536Z,77.38
2018-09-19T01:04:56.403Z,77.77
2018-09-19T01:07:25.544Z,78.20
2018-09-19T01:09:54.568Z,78.25
2018-09-19T01:12:23.571Z,78.06
2018-09-19T01:14:52.737Z,78.79
2018-09-19T01:17:21.847Z,78.80
2018-09-19T01:19:50.768Z,78.46
2018-09-19T01:22:20.000Z,78.87
2018-09-19T01:24:49.015Z,79.25
2018-09-19T01:27:17.839Z,79.20
2018-09-19T01:29:46.831Z,78.46
2018-09-19T01:32:15.757Z,79.31
2018-09-19T01:34:44.742Z,79.25
2018-09-19T01:37:13.786Z,78.96
2018-09-19T01:39:42.806Z,79.76
2018-09-19T01:42:11.745Z,80.05
2018-09-19T01:44:40.966Z,79.29
2018-09-19T01:47:09.751Z,80.25
2018-09-19T01:49:38.824Z,80.51
2018-09-19T01:52:08.048Z,80.34
2018-09-19T01:54:36.876Z,80.31
2018-09-19T01:57:05.866Z,80.45
2018-09-19T01:59:35.025Z,81.05
2018-09-19T02:02:04.040Z,80.20
2018-09-19T02:04:33.057Z,80.09
2018-09-19T02:07:02.235Z,80.65
2018-09-19T02:09:31.280Z,80.54
2018-09-19T02:12:00.207Z,81.24
2018-09-19T02:14:29.145Z,80.71
2018-09-19T02:16:58.169Z,81.03
2018-09-19T02:19:27.059Z,81.10
2018-09-19T02:21:56.326Z,81.31
2018-09-19T02:24:26.226Z,80.31
2018-09-19T02:26:55.132Z,80.72
2018-09-19T02:29:24.143Z,80.48
2018-09-19T02:31:53.128Z,80.29
2018-09-19T02:34:21.977Z,80.79
2018-09-19T02:36:50.992Z,81.13
2018-09-19T02:39:19.927Z,81.54
2018-09-19T02:41:48.789Z,82.02
2018-09-19T02:44:17.781Z,82.32
2018-09-19T02:46:46.582Z,82.84
2018-09-19T02:49:15.490Z,83.35
2018-09-19T02:51:44.411Z,82.46
2018-09-19T02:54:13.168Z,83.48
2018-09-19T02:56:42.152Z,83.80
2018-09-19T02:59:11.179Z,83.23
2018-09-19T03:01:40.176Z,83.60
2018-09-19T03:04:09.100Z,83.37
2018-09-19T03:06:38.271Z,84.37
2018-09-19T03:09:07.406Z,83.76
2018-09-19T03:11:36.303Z,84.39
2018-09-19T03:14:05.279Z,84.71
2018-09-19T03:16:34.244Z,84.74
2018-09-19T03:19:03.161Z,84.39
2018-09-19T03:21:32.215Z,84.10
2018-09-19T03:24:01.255Z,84.19
2018-09-19T03:26:30.376Z,84.67
2018-09-19T03:28:59.765Z,84.84
2018-09-19T03:31:28.701Z,84.74
2018-09-19T03:33:57.604Z,85.33
2018-09-19T03:36:26.723Z,85.67
2018-09-19T03:38:55.750Z,85.00
2018-09-19T03:41:24.810Z,85.30
2018-09-19T03:43:54.316Z,85.96
2018-09-19T03:46:23.228Z,86.76
2018-09-19T03:48:52.012Z,86.22
2018-09-19T03:51:21.399Z,86.74
2018-09-19T03:53:50.326Z,86.82
2018-09-19T03:56:19.245Z,87.91
2018-09-19T03:58:48.302Z,87.15
2018-09-19T04:01:17.058Z,87.69
2018-09-19T04:03:46.104Z,87.19
2018-09-19T04:06:16.332Z,87.42
2018-09-19T04:08:45.234Z,87.27
2018-09-19T04:11:14.168Z,87.02
2018-09-19T04:13:43.049Z,88.19
2018-09-19T04:16:11.853Z,88.14
2018-09-19T04:18:40.938Z,87.94
2018-09-19T04:21:09.904Z,88.09
2018-09-19T04:23:38.780Z,87.60
2018-09-19T04:26:07.781Z,86.81
2018-09-19T04:28:36.831Z,87.57
2018-09-19T04:31:05.890Z,87.42
2018-09-19T04:33:34.751Z,87.37
2018-09-19T04:36:05.412Z,87.20
2018-09-19T04:38:34.290Z,87.09
2018-09-19T04:41:03.458Z,87.59
2018-09-19T04:43:34.285Z,86.73
2018-09-19T04:46:04.404Z,86.81
2018-09-19T04:48:33.554Z,85.95
2018-09-19T04:51:02.730Z,85.77
2018-09-19T04:54:19.378Z,85.82
2018-09-19T04:56:48.527Z,85.31
2018-09-19T04:59:17.985Z,84.21
2018-09-19T05:01:47.027Z,83.92
2018-09-19T05:04:16.288Z,83.33
2018-09-19T05:06:45.142Z,83.73
2018-09-19T05:09:14.198Z,83.96
2018-09-19T05:11:43.439Z,82.66
2018-09-19T05:14:12.512Z,81.24
2018-09-19T05:16:41.510Z,81.84
2018-09-19T05:19:10.801Z,81.44
2018-09-19T05:21:39.899Z,81.22
2018-09-19T05:24:08.874Z,81.26
2018-09-19T05:26:37.931Z,81.08
2018-09-19T05:29:06.860Z,80.61
2018-09-19T05:31:35.777Z,79.89
2018-09-19T05:34:05.358Z,79.65
2018-09-19T05:36:34.222Z,79.79
2018-09-19T05:39:03.208Z,79.27
2018-09-19T05:41:31.999Z,79.55
2018-09-19T05:44:00.969Z,79.27
2018-09-19T05:46:29.899Z,78.79
2018-09-19T05:48:58.918Z,78.75
2018-09-19T05:51:29.265Z,78.55
2018-09-19T05:53:58.044Z,77.84
2018-09-19T05:56:27.241Z,77.01
2018-09-19T05:58:56.229Z,77.22
2018-09-19T06:01:25.285Z,77.11
2018-09-19T06:03:54.406Z,77.21
2018-09-19T06:06:24.727Z,76.29
2018-09-19T06:08:54.737Z,75.85
2018-09-19T06:11:26.176Z,75.61
2018-09-19T06:13:55.793Z,76.57
2018-09-19T06:16:25.157Z,75.77
2018-09-19T06:18:54.084Z,75.49
2018-09-19T06:21:23.285Z,75.58
2018-09-19T06:23:53.151Z,74.41
2018-09-19T06:26:22.049Z,74.57
2018-09-19T06:28:50.949Z,73.54
2018-09-19T06:31:19.842Z,73.46
2018-09-19T06:33:49.610Z,74.16
2018-09-19T06:36:20.501Z,73.25
2018-09-19T06:38:49.917Z,73.33
2018-09-19T06:41:18.875Z,73.09
2018-09-19T06:43:48.198Z,73.07
2018-09-19T06:46:21.066Z,73.27
2018-09-19T06:48:50.585Z,72.70
2018-09-19T06:51:19.471Z,71.73
2018-09-19T06:53:48.919Z,71.36
2018-09-19T06:56:17.917Z,71.32
2018-09-19T06:58:46.833Z,70.32
2018-09-19T07:01:15.683Z,69.92
2018-09-19T07:03:45.345Z,69.95
2018-09-19T07:06:14.208Z,69.90
2018-09-19T07:08:43.126Z,69.15
2018-09-19T07:11:12.278Z,68.73
2018-09-19T07:13:41.108Z,68.64
2018-09-19T07:16:09.949Z,68.62
2018-09-19T07:18:39.760Z,67.70
2018-09-19T07:21:08.619Z,66.82
2018-09-19T07:23:37.569Z,66.62
2018-09-19T07:26:06.997Z,66.56
2018-09-19T07:28:35.864Z,66.20
2018-09-19T07:31:04.877Z,66.37
2018-09-19T07:33:34.437Z,64.53
2018-09-19T07:36:03.417Z,64.46
2018-09-19T07:38:32.194Z,64.69
2018-09-19T07:41:01.574Z,65.07
2018-09-19T07:43:30.453Z,64.37
2018-09-19T07:45:59.303Z,63.70
2018-09-19T07:48:29.299Z,63.95
2018-09-19T07:50:58.098Z,63.49
2018-09-19T07:53:41.820Z,62.87
2018-09-19T07:58:44.667Z,61.27
2018-09-19T08:01:13.574Z,61.24
2018-09-19T08:03:42.467Z,60.99
2018-09-19T08:06:11.337Z,61.24
2018-09-19T08:08:40.229Z,61.25
2018-09-19T08:11:09.094Z,60.92
2018-09-19T08:13:38.306Z,59.37
2018-09-19T08:16:07.095Z,59.02
2018-09-19T08:18:36.014Z,58.84
2018-09-19T08:21:04.873Z,59.49
2018-09-19T08:23:33.903Z,58.72
2018-09-19T08:26:02.844Z,58.75
2018-09-19T08:28:31.682Z,59.41
2018-09-19T08:31:00.601Z,58.14
2018-09-19T08:33:29.522Z,58.79
2018-09-19T08:35:58.863Z,58.52
2018-09-19T08:38:27.810Z,59.27
2018-09-19T08:40:56.723Z,58.40
2018-09-19T08:43:26.309Z,56.91
2018-09-19T08:45:55.169Z,56.58
2018-09-19T08:48:24.028Z,56.62
2018-09-19T08:50:53.162Z,57.14
2018-09-19T08:53:21.960Z,58.10
2018-09-19T08:55:50.800Z,56.71
2018-09-19T08:58:20.025Z,56.76
2018-09-19T09:00:48.913Z,56.26
2018-09-19T09:03:17.691Z,56.08
2018-09-19T09:05:46.635Z,54.69
2018-09-19T09:08:15.412Z,55.34
2018-09-19T09:10:44.342Z,53.82
2018-09-19T09:13:13.354Z,53.34
2018-09-19T09:15:42.330Z,53.23
2018-09-19T09:18:11.260Z,53.30
2018-09-19T09:20:40.553Z,54.23
2018-09-19T09:23:10.682Z,54.35
2018-09-19T09:25:43.596Z,54.16
2018-09-19T09:28:12.521Z,54.61
2018-09-19T09:30:41.358Z,53.49
2018-09-19T09:33:10.557Z,52.98
2018-09-19T09:35:39.388Z,53.23
2018-09-19T09:38:08.359Z,53.55
2018-09-19T09:40:38.422Z,52.35
2018-09-19T09:43:07.353Z,52.74
2018-09-19T09:45:36.279Z,52.80
2018-09-19T09:48:05.184Z,52.75
2018-09-19T09:50:34.289Z,51.56
2018-09-19T09:53:03.288Z,51.29
2018-09-19T09:55:32.515Z,51.17
2018-09-19T09:58:15.094Z,51.74
2018-09-19T10:00:44.228Z,51.62
2018-09-19T10:03:13.740Z,52.22
2018-09-19T10:05:42.770Z,50.93
2018-09-19T10:08:12.208Z,50.63
2018-09-19T10:10:41.084Z,50.04
2018-09-19T10:13:09.928Z,50.36
2018-09-19T10:15:39.554Z,50.21
2018-09-19T10:18:08.757Z,50.53
2018-09-19T10:20:37.826Z,51.61
2018-09-19T10:23:10.656Z,50.95
2018-09-19T10:25:39.668Z,51.59
2018-09-19T10:28:08.607Z,51.44
2018-09-19T10:30:39.163Z,51.62
2018-09-19T10:33:08.119Z,50.54
2018-09-19T10:35:37.255Z,51.42
2018-09-19T10:38:06.397Z,50.78
2018-09-19T10:40:41.933Z,49.63
2018-09-19T10:43:11.198Z,49.61
2018-09-19T10:45:40.066Z,49.43
2018-09-19T10:48:09.033Z,49.17
2018-09-19T10:50:38.256Z,49.59
2018-09-19T10:53:10.981Z,48.51
2018-09-19T10:55:44.904Z,48.31
2018-09-19T10:58:14.054Z,47.57
2018-09-19T11:00:42.993Z,47.58
2018-09-19T11:03:12.517Z,47.75
2018-09-19T11:05:41.502Z,47.94
2018-09-19T11:08:10.534Z,48.06
2018-09-19T11:10:39.728Z,47.39
2018-09-19T11:13:08.726Z,46.58
2018-09-19T11:15:51.294Z,43.28
2018-09-19T11:18:20.207Z,43.46
2018-09-19T11:20:49.035Z,41.66
2018-09-19T11:23:18.341Z,42.59
2018-09-19T11:25:47.294Z,45.96
2018-09-19T11:28:17.272Z,44.03
2018-09-19T11:30:46.459Z,42.67
2018-09-19T11:33:15.328Z,42.42
2018-09-19T11:35:44.373Z,43.10
2018-09-19T11:38:13.916Z,42.00
2018-09-19T11:40:44.636Z,41.42
2018-09-19T11:43:17.271Z,42.04
2018-09-19T11:45:47.331Z,41.68
2018-09-19T11:48:16.648Z,43.04
2018-09-19T11:50:46.470Z,43.25
2018-09-19T11:53:24.969Z,42.37
2018-09-19T11:55:54.136Z,41.73
2018-09-19T11:58:23.249Z,42.69
2018-09-19T12:00:52.280Z,42.33
2018-09-19T12:03:21.881Z,42.42
2018-09-19T12:05:50.957Z,41.42
2018-09-19T12:08:20.851Z,41.04
2018-09-19T12:10:49.662Z,40.56
2018-09-19T12:13:18.558Z,39.86
2018-09-19T12:15:47.513Z,40.55
2018-09-19T12:18:16.381Z,39.31
2018-09-19T12:20:45.305Z,39.16
2018-09-19T12:23:14.207Z,40.03
2018-09-19T12:25:43.004Z,38.78
2018-09-19T12:28:12.101Z,38.43
2018-09-19T12:30:42.485Z,38.79
2018-09-19T12:33:12.402Z,37.98
2018-09-19T12:35:41.465Z,38.14
2018-09-19T12:38:10.923Z,35.98
2018-09-19T12:40:40.202Z,38.06
2018-09-19T12:43:15.060Z,37.14
2018-09-19T12:45:44.185Z,36.48
2018-09-19T12:48:13.091Z,35.88
2018-09-19T12:50:41.987Z,36.07
2018-09-19T12:53:10.925Z,35.81
2018-09-19T12:55:39.748Z,35.34
2018-09-19T12:58:09.055Z,34.95
2018-09-19T13:00:38.015Z,35.54
2018-09-19T13:03:07.124Z,35.49
2018-09-19T13:05:36.229Z,34.15
2018-09-19T13:08:05.583Z,34.62
2018-09-19T13:10:34.596Z,35.04
2018-09-19T13:13:03.820Z,34.87
2018-09-19T13:15:32.701Z,32.85
2018-09-19T13:18:06.297Z,31.49
2018-09-19T13:20:35.222Z,33.49
2018-09-19T13:23:04.055Z,33.99
2018-09-19T13:25:33.007Z,33.97
2018-09-19T13:28:01.913Z,33.43
2018-09-19T13:30:30.657Z,33.96
2018-09-19T13:33:00.097Z,33.80
2018-09-19T13:35:28.866Z,30.20
2018-09-19T13:37:58.120Z,31.13
2018-09-19T13:40:27.523Z,31.58
2018-09-19T13:42:56.724Z,35.61
2018-09-19T13:45:25.693Z,36.36
2018-09-19T13:47:54.928Z,37.05
2018-09-19T13:50:39.820Z,37.04
2018-09-19T13:53:09.802Z,35.81
2018-09-19T13:55:38.738Z,35.61
2018-09-19T13:58:07.843Z,35.29
2018-09-19T14:00:36.882Z,36.36
2018-09-19T14:03:06.033Z,34.82
2018-09-19T14:05:35.017Z,34.92
2018-09-19T14:08:10.724Z,34.13
2018-09-19T14:10:40.199Z,35.19
2018-09-19T14:13:13.821Z,35.56
2018-09-19T14:15:43.649Z,34.69
2018-09-19T14:18:13.131Z,33.21
2018-09-19T14:20:43.202Z,33.90
2018-09-19T14:23:12.686Z,34.54
2018-09-19T14:25:41.781Z,34.47
2018-09-19T14:28:11.231Z,32.95
2018-09-19T14:30:41.332Z,34.22
2018-09-19T14:33:12.459Z,35.23
2018-09-19T14:35:41.273Z,35.29
2018-09-19T14:38:10.629Z,35.09
2018-09-19T14:40:40.502Z,34.58
2018-09-19T14:43:10.198Z,35.06
2018-09-19T14:45:39.182Z,35.21
2018-09-19T14:48:10.211Z,34.69
2018-09-19T14:50:43.300Z,35.25
2018-09-19T14:53:14.613Z,36.28
2018-09-19T14:55:43.573Z,34.40
2018-09-19T14:58:12.468Z,34.36
2018-09-19T15:00:41.941Z,34.97
2018-09-19T15:03:11.860Z,34.92
2018-09-19T15:05:41.814Z,36.12
2018-09-19T15:08:10.762Z,36.34
2018-09-19T15:10:39.683Z,37.57
2018-09-19T15:13:08.583Z,37.37
2018-09-19T15:15:37.650Z,37.22
2018-09-19T15:18:06.674Z,36.08
2018-09-19T15:20:35.802Z,36.68
2018-09-19T15:23:04.740Z,37.17
2018-09-19T15:25:33.576Z,37.60
2018-09-19T15:28:03.144Z,38.31
2018-09-19T15:30:32.010Z,37.90
2018-09-19T15:33:01.171Z,37.90
2018-09-19T15:35:31.448Z,37.49
2018-09-19T15:38:00.448Z,38.51
2018-09-19T15:40:29.400Z,39.01
2018-09-19T15:42:58.488Z,37.78
2018-09-19T15:45:27.299Z,37.85
2018-09-19T15:47:56.330Z,38.53
2018-09-19T15:50:26.249Z,37.66
2018-09-19T15:52:55.041Z,38.95
2018-09-19T15:55:24.037Z,39.11
2018-09-19T15:57:52.960Z,40.08
2018-09-19T16:00:22.105Z,39.38
2018-09-19T16:02:51.045Z,39.07
2018-09-19T16:05:24.358Z,38.92
2018-09-19T16:07:53.764Z,39.42
2018-09-19T16:10:22.672Z,40.11
2018-09-19T16:12:52.788Z,40.52
2018-09-19T16:15:21.609Z,40.00
2018-09-19T16:17:50.650Z,41.32
2018-09-19T16:20:19.751Z,41.70
2018-09-19T16:22:48.747Z,42.12
2018-09-19T16:25:17.537Z,42.57
2018-09-19T16:27:46.496Z,42.34
2018-09-19T16:30:15.313Z,43.41
2018-09-19T16:32:44.302Z,44.51
2018-09-19T16:35:13.569Z,45.02
2018-09-19T16:37:42.539Z,45.28
2018-09-19T16:40:11.558Z,45.53
2018-09-19T16:42:40.849Z,45.85
2018-09-19T16:46:39.276Z,45.39
2018-09-19T16:55:54.608Z,46.51
2018-09-19T16:58:23.616Z,46.29
2018-09-19T17:00:52.753Z,46.62
2018-09-19T17:03:21.780Z,46.68
2018-09-19T17:05:50.899Z,46.96
2018-09-19T17:08:19.880Z,47.12
2018-09-19T17:10:48.804Z,47.64
2018-09-19T17:13:17.664Z,47.63
2018-09-19T17:15:46.920Z,47.23
2018-09-19T17:18:16.403Z,47.47
2018-09-19T17:20:45.375Z,47.25
2018-09-19T17:23:14.387Z,48.11
2018-09-19T17:25:43.373Z,47.58
2018-09-19T17:28:12.149Z,47.72
2018-09-19T17:30:41.099Z,48.08
2018-09-19T17:33:10.462Z,48.39
2018-09-19T17:35:39.352Z,48.33
2018-09-19T17:38:08.427Z,48.70
2018-09-19T17:40:37.413Z,48.97
2018-09-19T17:43:06.477Z,48.57
2018-09-19T17:45:35.374Z,48.41
2018-09-19T17:48:04.528Z,48.19
2018-09-19T17:50:33.584Z,48.15
2018-09-19T17:53:02.538Z,48.33
2018-09-19T17:55:34.049Z,48.86
2018-09-19T17:58:02.985Z,49.16
2018-09-19T18:00:31.952Z,49.35
2018-09-19T18:03:01.497Z,48.21
2018-09-19T18:05:30.460Z,48.23
2018-09-19T18:07:59.510Z,47.74
2018-09-19T18:10:28.780Z,47.98
2018-09-19T18:12:57.705Z,48.17
2018-09-19T18:15:26.613Z,48.36
2018-09-19T18:17:56.055Z,48.42
2018-09-19T18:20:25.058Z,48.64
2018-09-19T18:22:54.016Z,48.28
2018-09-19T18:25:23.327Z,48.64
2018-09-19T18:27:52.185Z,49.15
2018-09-19T18:30:21.280Z,49.71
2018-09-19T18:32:51.355Z,49.97
2018-09-19T18:35:20.492Z,50.17
2018-09-19T18:37:49.437Z,50.12
2018-09-19T18:40:18.432Z,50.57
2018-09-19T18:42:47.397Z,50.63
2018-09-19T18:45:16.301Z,50.90
2018-09-19T18:47:45.170Z,51.46
2018-09-19T18:50:14.193Z,51.88
2018-09-19T18:52:46.477Z,51.95
2018-09-19T18:55:15.527Z,52.10
2018-09-19T18:57:44.540Z,52.04
2018-09-19T19:00:13.598Z,52.46
2018-09-19T19:02:42.603Z,52.75
2018-09-19T19:05:11.499Z,52.84
2018-09-19T19:07:40.797Z,52.69
2018-09-19T19:10:09.610Z,52.82
2018-09-19T19:12:38.659Z,52.63
2018-09-19T19:15:08.080Z,53.28
2018-09-19T19:17:36.927Z,53.29
2018-09-19T19:20:05.912Z,52.76
2018-09-19T19:22:35.323Z,52.89
2018-09-19T19:25:04.209Z,53.25
2018-09-19T19:27:32.949Z,53.40
2018-09-19T19:30:02.391Z,53.92
2018-09-19T19:32:31.210Z,54.26
2018-09-19T19:35:00.178Z,54.79
2018-09-19T19:37:29.870Z,55.54
2018-09-19T19:39:58.635Z,55.51
2018-09-19T19:42:27.651Z,55.45
2018-09-19T19:44:56.520Z,55.12
2018-09-19T19:47:25.492Z,55.05
2018-09-19T19:49:54.506Z,55.24
2018-09-19T19:52:23.425Z,54.75
2018-09-19T19:54:52.262Z,55.32
2018-09-19T19:57:21.296Z,55.02
2018-09-19T19:59:50.479Z,55.35
2018-09-19T20:02:19.833Z,54.78
2018-09-19T20:04:49.037Z,54.36
2018-09-19T20:07:17.898Z,54.95
2018-09-19T20:09:47.065Z,55.32
2018-09-19T20:12:15.909Z,55.51
2018-09-19T20:14:45.259Z,56.02
2018-09-19T20:17:14.069Z,56.13
2018-09-19T20:19:43.445Z,56.50
2018-09-19T20:22:12.708Z,56.78
2018-09-19T20:24:41.677Z,56.88
2018-09-19T20:27:11.012Z,57.38
2018-09-19T20:29:40.517Z,58.09
2018-09-19T20:32:09.488Z,59.21
2018-09-19T20:34:38.417Z,58.99
2018-09-19T20:37:07.605Z,59.13
2018-09-19T20:39:36.521Z,59.04
2018-09-19T20:42:05.482Z,59.48
2018-09-19T20:44:34.379Z,60.35
2018-09-19T20:47:03.322Z,60.58
2018-09-19T20:49:32.408Z,59.73
2018-09-19T20:52:01.486Z,58.71
2018-09-19T20:54:30.277Z,59.58
2018-09-19T20:56:59.230Z,60.72
2018-09-19T20:59:28.509Z,60.28
2018-09-19T21:01:57.548Z,61.64
2018-09-19T21:04:26.612Z,61.78
2018-09-19T21:06:55.984Z,61.84
2018-09-19T21:09:24.942Z,63.00
2018-09-19T21:11:53.902Z,62.80
2018-09-19T21:14:23.140Z,63.72
2018-09-19T21:16:52.108Z,62.70
2018-09-19T21:19:21.108Z,63.19
2018-09-19T21:21:50.130Z,63.47
2018-09-19T21:24:19.052Z,63.45
2018-09-19T21:26:48.143Z,63.45
2018-09-19T21:29:17.420Z,63.71
2018-09-19T21:31:46.276Z,63.67
2018-09-19T21:34:15.283Z,64.20
2018-09-19T21:38:13.944Z,64.46
2018-09-19T21:40:42.866Z,63.43
2018-09-19T21:43:11.687Z,64.54
2018-09-19T21:45:41.066Z,64.08
2018-09-19T21:48:10.109Z,64.86
2018-09-19T21:50:38.882Z,64.43
2018-09-19T21:53:08.781Z,65.09
2018-09-19T21:55:37.668Z,64.79
2018-09-19T21:58:06.514Z,63.69
2018-09-19T22:00:35.517Z,63.07
2018-09-19T22:03:04.649Z,64.31
2018-09-19T22:05:33.590Z,63.94
2018-09-19T22:08:02.456Z,63.69
2018-09-19T22:10:31.363Z,63.46
2018-09-19T22:13:00.192Z,62.67
2018-09-19T22:15:29.559Z,62.40
2018-09-19T22:17:58.359Z,62.93
2018-09-19T22:20:27.336Z,63.86
2018-09-19T22:22:56.641Z,63.57
2018-09-19T22:25:25.560Z,63.93
2018-09-19T22:27:54.386Z,64.45
2018-09-19T22:30:23.704Z,63.34
2018-09-19T22:32:52.569Z,63.81
2018-09-19T22:35:21.441Z,64.02
2018-09-19T22:37:50.674Z,63.89
2018-09-19T22:40:19.519Z,63.92
2018-09-19T22:42:48.490Z,63.85
2018-09-19T22:45:17.737Z,64.97
2018-09-19T22:47:46.744Z,64.50
2018-09-19T22:50:15.725Z,65.28
2018-09-19T22:52:45.112Z,65.56
2018-09-19T22:55:13.979Z,65.96
2018-09-19T22:57:42.849Z,67.14
2018-09-19T23:00:11.738Z,66.33
2018-09-19T23:02:40.636Z,66.46
2018-09-19T23:05:09.544Z,66.53
2018-09-19T23:07:38.867Z,66.43
2018-09-19T23:10:07.791Z,66.69
2018-09-19T23:12:36.665Z,67.66
2018-09-19T23:15:05.946Z,66.83
2018-09-19T23:17:34.872Z,67.66
2018-09-19T23:20:03.834Z,66.99
2018-09-19T23:23:35.778Z,68.45
2018-09-19T23:26:04.944Z,68.88
2018-09-19T23:28:33.823Z,68.10
2018-09-19T23:31:03.005Z,68.63
2018-09-19T23:33:31.793Z,69.04
2018-09-19T23:36:00.713Z,68.93
2018-09-19T23:38:29.773Z,69.02
2018-09-19T23:40:58.696Z,69.29
2018-09-19T23:43:27.625Z,68.94
2018-09-19T23:45:56.862Z,69.68
2018-09-19T23:48:25.839Z,69.97
2018-09-19T23:50:54.580Z,70.05
2018-09-19T23:53:23.521Z,69.95
2018-09-19T23:55:52.329Z,70.54
2018-09-19T23:58:21.391Z,70.71
